createdAt,value
2023-04-08T00:01:03.836Z,99395.88
2023-04-08T00:03:32.715Z,99401.72
2023-04-08T00:06:02.978Z,99398.69
2023-04-08T00:08:31.202Z,99403.97
2023-04-08T00:10:59.555Z,99391.84
2023-04-08T00:13:27.480Z,99400.91
2023-04-08T00:15:55.498Z,99399.13
2023-04-08T00:18:23.783Z,99402.06
2023-04-08T00:20:51.649Z,99403.84
2023-04-08T00:23:21.575Z,99405.97
2023-04-08T00:25:49.923Z,99405.13
2023-04-08T00:28:17.838Z,99406.37
2023-04-08T00:30:45.992Z,99409.84
2023-04-08T00:33:14.280Z,99408.56
2023-04-08T00:35:42.214Z,99404.72
2023-04-08T00:38:10.593Z,99407.59
2023-04-08T00:40:39.170Z,99400.13
2023-04-08T00:43:07.055Z,99407.13
2023-04-08T00:45:35.113Z,99405.75
2023-04-08T00:48:04.789Z,99410.72
2023-04-08T00:50:32.839Z,99410.53
2023-04-08T00:53:00.688Z,99413.87
2023-04-08T00:55:29.160Z,99409.16
2023-04-08T00:57:57.416Z,99412.03
2023-04-08T01:00:26.382Z,99419.88
2023-04-08T01:03:08.719Z,99414.44
2023-04-08T01:05:44.415Z,99406.56
2023-04-08T01:08:12.923Z,99408.31
2023-04-08T01:10:43.153Z,99406.37
2023-04-08T01:13:15.040Z,99412.47
2023-04-08T01:15:44.760Z,99400.19
2023-04-08T01:18:14.278Z,99409.19
2023-04-08T01:20:43.617Z,99407.50
2023-04-08T01:23:31.851Z,99407.47
2023-04-08T01:25:59.706Z,99404.28
2023-04-08T01:28:30.012Z,99417.22
2023-04-08T01:31:01.253Z,99413.75
2023-04-08T01:33:29.976Z,99412.16
2023-04-08T01:35:58.844Z,99408.97
2023-04-08T01:38:27.494Z,99416.28
2023-04-08T01:40:56.148Z,99405.81
2023-04-08T01:43:25.096Z,99407.37
2023-04-08T01:45:58.469Z,99402.31
2023-04-08T01:48:27.534Z,99404.84
2023-04-08T01:50:56.499Z,99402.88
2023-04-08T01:53:24.477Z,99403.69
2023-04-08T01:55:58.733Z,99398.84
2023-04-08T01:58:30.065Z,99402.25
2023-04-08T02:00:59.390Z,99398.56
2023-04-08T02:03:29.136Z,99402.94
2023-04-08T02:05:57.261Z,99398.66
2023-04-08T02:08:25.165Z,99402.94
2023-04-08T02:10:54.892Z,99407.84
2023-04-08T02:13:22.844Z,99400.41
2023-04-08T02:15:58.258Z,99399.87
2023-04-08T02:18:28.397Z,99402.31
2023-04-08T02:21:15.080Z,99404.72
2023-04-08T02:23:47.375Z,99396.03
2023-04-08T02:26:17.196Z,99405.81
2023-04-08T02:28:46.310Z,99402.16
2023-04-08T02:31:15.161Z,99397.78
2023-04-08T02:33:45.962Z,99404.06
2023-04-08T02:36:14.898Z,99400.03
2023-04-08T02:38:42.818Z,99405.19
2023-04-08T02:41:11.162Z,99407.72
2023-04-08T02:43:39.072Z,99400.56
2023-04-08T02:46:07.585Z,99400.81
2023-04-08T02:48:37.122Z,99397.31
2023-04-08T02:51:04.993Z,99398.09
2023-04-08T02:53:32.964Z,99400.50
2023-04-08T02:56:01.516Z,99398.31
2023-04-08T02:58:29.444Z,99400.03
2023-04-08T03:00:57.439Z,99400.25
2023-04-08T03:03:29.861Z,99399.84
2023-04-08T03:05:58.800Z,99410.97
2023-04-08T03:08:27.118Z,99403.09
2023-04-08T03:10:55.029Z,99404.28
2023-04-08T03:13:22.993Z,99406.91
2023-04-08T03:15:51.300Z,99408.47
2023-04-08T03:18:19.221Z,99409.62
2023-04-08T03:20:47.453Z,99400.34
2023-04-08T03:23:16.618Z,99403.59
2023-04-08T03:25:44.661Z,99407.75
2023-04-08T03:28:12.626Z,99412.22
2023-04-08T03:30:41.179Z,99411.00
2023-04-08T03:33:09.357Z,99412.44
2023-04-08T03:35:37.796Z,99412.78
2023-04-08T03:38:06.433Z,99418.62
2023-04-08T03:40:34.406Z,99424.97
2023-04-08T03:43:02.286Z,99411.12
2023-04-08T03:45:30.677Z,99420.78
2023-04-08T03:47:58.626Z,99428.13
2023-04-08T03:50:26.717Z,99426.44
2023-04-08T03:52:54.917Z,99427.25
2023-04-08T03:55:22.864Z,99430.09
2023-04-08T03:57:50.878Z,99432.00
2023-04-08T04:00:19.094Z,99441.81
2023-04-08T04:02:47.540Z,99434.31
2023-04-08T04:05:15.703Z,99435.81
2023-04-08T04:07:43.648Z,99441.38
2023-04-08T04:10:12.226Z,99439.44
2023-04-08T04:12:40.158Z,99440.72
2023-04-08T04:15:08.502Z,99445.00
2023-04-08T04:17:36.746Z,99442.69
2023-04-08T04:20:06.646Z,99451.38
2023-04-08T04:22:34.489Z,99451.78
2023-04-08T04:25:02.806Z,99448.16
2023-04-08T04:27:30.851Z,99451.59
2023-04-08T04:29:58.743Z,99458.06
2023-04-08T04:32:27.189Z,99453.25
2023-04-08T04:34:55.214Z,99455.00
2023-04-08T04:37:23.415Z,99453.44
2023-04-08T04:39:51.675Z,99454.47
2023-04-08T04:42:19.638Z,99452.94
2023-04-08T04:44:47.953Z,99459.63
2023-04-08T04:47:16.652Z,99457.72
2023-04-08T04:49:45.903Z,99453.78
2023-04-08T04:52:13.859Z,99453.44
2023-04-08T04:54:42.071Z,99463.00
2023-04-08T04:57:11.491Z,99459.87
2023-04-08T04:59:39.351Z,99466.72
2023-04-08T05:02:07.705Z,99459.47
2023-04-08T05:04:36.332Z,99463.03
2023-04-08T05:07:04.506Z,99464.59
2023-04-08T05:09:32.761Z,99456.78
2023-04-08T05:12:00.678Z,99459.34
2023-04-08T05:14:31.885Z,99461.38
2023-04-08T05:17:00.158Z,99469.00
2023-04-08T05:19:28.018Z,99473.69
2023-04-08T05:21:56.142Z,99471.03
2023-04-08T05:24:24.366Z,99471.41
2023-04-08T05:26:53.505Z,99471.00
2023-04-08T05:29:22.133Z,99478.22
2023-04-08T05:31:50.743Z,99483.63
2023-04-08T05:34:23.308Z,99489.75
2023-04-08T05:36:54.670Z,99489.63
2023-04-08T05:39:22.501Z,99490.53
2023-04-08T05:41:50.668Z,99494.78
2023-04-08T05:44:19.137Z,99499.94
2023-04-08T05:46:47.191Z,99496.63
2023-04-08T05:49:15.953Z,99498.53
2023-04-08T05:51:44.303Z,99497.31
2023-04-08T05:54:12.285Z,99499.81
2023-04-08T05:56:40.525Z,99503.28
2023-04-08T05:59:08.741Z,99505.47
2023-04-08T06:01:36.798Z,99503.34
2023-04-08T06:04:05.621Z,99501.47
2023-04-08T06:06:33.669Z,99511.00
2023-04-08T06:09:01.774Z,99497.56
2023-04-08T06:11:30.143Z,99511.78
2023-04-08T06:13:58.101Z,99505.31
2023-04-08T06:16:26.201Z,99506.56
2023-04-08T06:18:54.742Z,99506.81
2023-04-08T06:21:22.607Z,99508.56
2023-04-08T06:23:50.441Z,99510.59
2023-04-08T06:26:18.719Z,99511.63
2023-04-08T06:28:46.628Z,99516.25
2023-04-08T06:31:14.526Z,99519.25
2023-04-08T06:33:42.833Z,99512.59
2023-04-08T06:36:11.467Z,99517.47
2023-04-08T06:38:39.609Z,99521.69
2023-04-08T06:41:08.383Z,99513.09
2023-04-08T06:43:38.015Z,99522.81
2023-04-08T06:46:06.461Z,99525.03
2023-04-08T06:48:34.848Z,99527.19
2023-04-08T06:51:03.047Z,99536.97
2023-04-08T06:53:33.008Z,99526.00
2023-04-08T06:56:01.521Z,99537.81
2023-04-08T06:58:30.194Z,99535.44
2023-04-08T07:01:00.130Z,99530.00
2023-04-08T07:03:30.007Z,99537.66
2023-04-08T07:05:57.946Z,99539.66
2023-04-08T07:08:25.930Z,99537.72
2023-04-08T07:10:54.296Z,99542.84
2023-04-08T07:13:22.210Z,99544.09
2023-04-08T07:15:50.111Z,99549.91
2023-04-08T07:18:18.857Z,99546.38
2023-04-08T07:20:51.445Z,99551.44
2023-04-08T07:23:20.358Z,99557.66
2023-04-08T07:25:48.470Z,99558.28
2023-04-08T07:28:16.484Z,99563.09
2023-04-08T07:30:44.824Z,99555.28
2023-04-08T07:33:12.872Z,99559.13
2023-04-08T07:35:42.256Z,99571.38
2023-04-08T07:38:11.792Z,99567.88
2023-04-08T07:40:39.753Z,99573.94
2023-04-08T07:43:09.326Z,99575.22
2023-04-08T07:45:37.564Z,99576.66
2023-04-08T07:48:05.695Z,99578.97
2023-04-08T07:50:33.677Z,99587.97
2023-04-08T07:53:02.069Z,99589.78
2023-04-08T07:55:37.496Z,99583.81
2023-04-08T07:58:07.941Z,99589.91
2023-04-08T08:00:35.814Z,99584.72
2023-04-08T08:03:04.176Z,99594.69
2023-04-08T08:05:32.122Z,99590.06
2023-04-08T08:08:00.016Z,99595.34
2023-04-08T08:10:28.377Z,99594.12
2023-04-08T08:12:56.486Z,99586.91
2023-04-08T08:15:24.404Z,99595.78
2023-04-08T08:17:52.744Z,99588.53
2023-04-08T08:20:20.922Z,99592.69
2023-04-08T08:22:57.236Z,99592.53
2023-04-08T08:25:26.429Z,99602.00
2023-04-08T08:27:55.649Z,99610.84
2023-04-08T08:30:23.689Z,99610.56
2023-04-08T08:32:52.425Z,99615.19
2023-04-08T08:35:21.977Z,99612.28
2023-04-08T08:37:49.856Z,99616.19
2023-04-08T08:40:18.359Z,99611.25
2023-04-08T08:42:52.556Z,99624.03
2023-04-08T08:45:22.987Z,99623.84
2023-04-08T08:47:51.895Z,99622.16
2023-04-08T08:50:20.486Z,99620.09
2023-04-08T08:52:52.155Z,99626.31
2023-04-08T08:55:36.148Z,99628.94
2023-04-08T08:58:09.574Z,99635.44
2023-04-08T09:00:39.599Z,99636.50
2023-04-08T09:03:23.934Z,99630.69
2023-04-08T09:05:56.416Z,99633.13
2023-04-08T09:08:26.488Z,99632.06
2023-04-08T09:10:55.583Z,99638.31
2023-04-08T09:13:25.852Z,99638.62
2023-04-08T09:16:04.235Z,99642.22
2023-04-08T09:18:37.144Z,99638.22
2023-04-08T09:21:07.893Z,99631.72
2023-04-08T09:23:42.800Z,99647.78
2023-04-08T09:26:23.156Z,99650.44
2023-04-08T09:29:11.419Z,99645.22
2023-04-08T09:31:43.158Z,99653.44
2023-04-08T09:34:12.837Z,99657.97
2023-04-08T09:36:40.878Z,99655.97
2023-04-08T09:39:09.177Z,99661.22
2023-04-08T09:41:38.617Z,99657.63
2023-04-08T09:44:08.760Z,99662.44
2023-04-08T09:46:46.712Z,99661.31
2023-04-08T09:49:38.606Z,99656.31
2023-04-08T09:52:16.000Z,99663.69
2023-04-08T09:54:54.543Z,99665.53
2023-04-08T09:57:31.569Z,99667.25
2023-04-08T10:00:16.403Z,99662.16
2023-04-08T10:03:17.556Z,99663.00
2023-04-08T10:05:47.506Z,99665.87
2023-04-08T10:08:16.155Z,99667.16
2023-04-08T10:10:45.544Z,99675.09
2023-04-08T10:13:16.096Z,99670.28
2023-04-08T10:15:47.877Z,99672.22
2023-04-08T10:18:18.769Z,99669.75
2023-04-08T10:20:47.888Z,99667.84
2023-04-08T10:23:19.335Z,99675.25
2023-04-08T10:25:48.749Z,99666.28
2023-04-08T10:28:20.101Z,99678.19
2023-04-08T10:30:51.116Z,99678.56
2023-04-08T10:33:22.653Z,99674.69
2023-04-08T10:35:55.341Z,99674.31
2023-04-08T10:38:23.375Z,99668.56
2023-04-08T10:40:52.687Z,99674.19
2023-04-08T10:43:21.026Z,99679.19
2023-04-08T10:45:51.599Z,99675.72
2023-04-08T10:48:25.099Z,99670.59
2023-04-08T10:50:55.170Z,99670.03
2023-04-08T10:53:37.115Z,99671.94
2023-04-08T10:56:05.557Z,99679.19
2023-04-08T10:58:34.890Z,99676.44
2023-04-08T11:01:07.884Z,99678.06
2023-04-08T11:03:37.677Z,99677.50
2023-04-08T11:06:08.171Z,99673.50
2023-04-08T11:08:37.364Z,99678.88
2023-04-08T11:11:11.383Z,99674.69
2023-04-08T11:13:51.228Z,99681.59
2023-04-08T11:16:21.900Z,99676.69
2023-04-08T11:18:51.301Z,99681.75
2023-04-08T11:21:19.266Z,99673.81
2023-04-08T11:23:50.519Z,99679.75
2023-04-08T11:26:20.209Z,99681.94
2023-04-08T11:28:52.192Z,99682.44
2023-04-08T11:31:24.113Z,99686.63
2023-04-08T11:33:55.643Z,99679.84
2023-04-08T11:36:24.000Z,99686.66
2023-04-08T11:38:54.346Z,99683.94
2023-04-08T11:41:22.691Z,99687.66
2023-04-08T11:43:55.408Z,99682.84
2023-04-08T11:46:24.325Z,99691.88
2023-04-08T11:48:59.758Z,99695.97
2023-04-08T11:51:28.336Z,99685.16
2023-04-08T11:53:57.381Z,99685.38
2023-04-08T11:56:26.202Z,99685.38
2023-04-08T11:58:54.159Z,99682.22
2023-04-08T12:01:22.656Z,99681.06
2023-04-08T12:03:58.967Z,99685.78
2023-04-08T12:06:28.237Z,99683.84
2023-04-08T12:08:57.062Z,99675.13
2023-04-08T12:11:25.302Z,99682.28
2023-04-08T12:13:53.784Z,99679.63
2023-04-08T12:16:22.621Z,99682.72
2023-04-08T12:18:50.631Z,99680.34
2023-04-08T12:21:18.563Z,99680.87
2023-04-08T12:23:47.075Z,99683.84
2023-04-08T12:26:15.012Z,99683.78
2023-04-08T12:28:43.113Z,99684.59
2023-04-08T12:31:11.568Z,99681.00
2023-04-08T12:33:39.543Z,99688.13
2023-04-08T12:36:07.908Z,99682.81
2023-04-08T12:38:36.236Z,99685.56
2023-04-08T12:41:04.233Z,99688.03
2023-04-08T12:43:33.026Z,99684.66
2023-04-08T12:46:02.258Z,99681.53
2023-04-08T12:48:30.435Z,99685.19
2023-04-08T12:50:59.023Z,99688.59
2023-04-08T12:53:27.330Z,99688.84
2023-04-08T12:55:57.528Z,99689.53
2023-04-08T12:58:25.999Z,99679.47
2023-04-08T13:00:56.338Z,99680.13
2023-04-08T13:03:24.441Z,99682.94
2023-04-08T13:05:52.582Z,99690.38
2023-04-08T13:08:20.888Z,99681.50
2023-04-08T13:10:49.010Z,99682.22
2023-04-08T13:13:16.906Z,99679.34
2023-04-08T13:15:45.244Z,99681.28
2023-04-08T13:18:13.779Z,99674.19
2023-04-08T13:20:41.744Z,99675.09
2023-04-08T13:23:11.347Z,99682.22
2023-04-08T13:25:39.216Z,99671.84
2023-04-08T13:28:07.246Z,99673.53
2023-04-08T13:30:35.988Z,99676.28
2023-04-08T13:33:04.300Z,99672.78
2023-04-08T13:35:32.506Z,99679.00
2023-04-08T13:38:00.919Z,99675.00
2023-04-08T13:40:30.300Z,99671.50
2023-04-08T13:42:58.226Z,99674.78
2023-04-08T13:45:26.653Z,99674.97
2023-04-08T13:47:54.591Z,99677.59
2023-04-08T13:50:22.638Z,99670.00
2023-04-08T13:52:50.956Z,99671.59
2023-04-08T13:55:19.008Z,99668.88
2023-04-08T13:57:46.980Z,99669.22
2023-04-08T14:00:15.731Z,99667.44
2023-04-08T14:02:44.371Z,99674.25
2023-04-08T14:05:12.509Z,99675.28
2023-04-08T14:07:40.675Z,99677.25
2023-04-08T14:10:09.885Z,99668.41
2023-04-08T14:12:38.031Z,99672.13
2023-04-08T14:15:06.617Z,99674.56
2023-04-08T14:17:36.360Z,99674.41
2023-04-08T14:20:08.351Z,99677.72
2023-04-08T14:22:36.697Z,99674.59
2023-04-08T14:25:04.915Z,99669.31
2023-04-08T14:27:32.985Z,99679.75
2023-04-08T14:30:02.869Z,99680.66
2023-04-08T14:32:32.216Z,99680.72
2023-04-08T14:35:00.219Z,99675.72
2023-04-08T14:37:28.570Z,99678.47
2023-04-08T14:39:58.319Z,99671.91
2023-04-08T14:42:26.801Z,99675.50
2023-04-08T14:44:55.099Z,99675.31
2023-04-08T14:47:23.358Z,99682.19
2023-04-08T14:49:51.424Z,99681.22
2023-04-08T14:52:19.707Z,99683.09
2023-04-08T14:54:48.256Z,99678.66
2023-04-08T14:57:16.948Z,99675.16
2023-04-08T14:59:45.283Z,99676.78
2023-04-08T15:02:15.406Z,99675.41
2023-04-08T15:04:43.304Z,99674.22
2023-04-08T15:07:11.609Z,99678.72
2023-04-08T15:09:39.682Z,99670.78
2023-04-08T15:12:08.929Z,99674.19
2023-04-08T15:14:37.187Z,99675.31
2023-04-08T15:17:05.256Z,99675.53
2023-04-08T15:19:33.264Z,99676.91
2023-04-08T15:22:01.576Z,99675.94
2023-04-08T15:24:29.514Z,99675.00
2023-04-08T15:26:57.477Z,99671.59
2023-04-08T15:29:26.380Z,99677.06
2023-04-08T15:31:55.348Z,99674.63
2023-04-08T15:34:23.326Z,99677.69
2023-04-08T15:36:51.835Z,99677.00
2023-04-08T15:39:19.756Z,99676.22
2023-04-08T15:41:49.320Z,99682.28
2023-04-08T15:44:19.452Z,99677.56
2023-04-08T15:46:47.585Z,99693.25
2023-04-08T15:49:15.742Z,99692.12
2023-04-08T15:51:44.893Z,99695.72
2023-04-08T15:54:12.810Z,99697.38
2023-04-08T15:56:41.010Z,99694.94
2023-04-08T15:59:09.358Z,99695.09
2023-04-08T16:01:37.277Z,99695.03
2023-04-08T16:04:06.195Z,99700.19
2023-04-08T16:06:34.864Z,99705.88
2023-04-08T16:09:02.770Z,99697.03
2023-04-08T16:11:31.222Z,99700.56
2023-04-08T16:13:59.048Z,99705.50
2023-04-08T16:16:27.197Z,99703.25
2023-04-08T16:18:56.778Z,99704.06
2023-04-08T16:21:24.666Z,99709.78
2023-04-08T16:23:54.953Z,99705.03
2023-04-08T16:26:24.395Z,99711.97
2023-04-08T16:28:52.791Z,99714.44
2023-04-08T16:31:21.254Z,99715.88
2023-04-08T16:33:51.895Z,99721.88
2023-04-08T16:36:20.408Z,99726.06
2023-04-08T16:38:48.268Z,99719.50
2023-04-08T16:41:16.713Z,99720.34
2023-04-08T16:43:44.790Z,99722.81
2023-04-08T16:46:16.527Z,99726.63
2023-04-08T16:48:45.264Z,99728.25
2023-04-08T16:51:14.448Z,99730.31
2023-04-08T16:53:42.864Z,99722.94
2023-04-08T16:56:16.472Z,99726.16
2023-04-08T16:58:44.544Z,99732.81
2023-04-08T17:01:15.735Z,99732.88
2023-04-08T17:03:44.142Z,99738.00
2023-04-08T17:06:13.908Z,99735.66
2023-04-08T17:08:43.615Z,99743.28
2023-04-08T17:11:14.030Z,99740.41
2023-04-08T17:13:43.732Z,99748.72
2023-04-08T17:16:13.761Z,99747.28
2023-04-08T17:18:42.487Z,99756.78
2023-04-08T17:21:15.924Z,99765.25
2023-04-08T17:23:43.950Z,99764.13
2023-04-08T17:26:15.530Z,99771.13
2023-04-08T17:28:45.368Z,99771.25
2023-04-08T17:31:13.629Z,99770.22
2023-04-08T17:33:41.838Z,99772.66
2023-04-08T17:36:09.896Z,99778.13
2023-04-08T17:38:40.216Z,99781.31
2023-04-08T17:41:08.402Z,99777.03
2023-04-08T17:43:36.431Z,99784.84
2023-04-08T17:46:05.111Z,99781.22
2023-04-08T17:48:33.205Z,99788.47
2023-04-08T17:51:06.405Z,99782.91
2023-04-08T17:53:34.831Z,99784.84
2023-04-08T17:56:04.623Z,99786.41
2023-04-08T17:58:32.619Z,99788.94
2023-04-08T18:01:00.970Z,99788.00
2023-04-08T18:03:29.347Z,99794.03
2023-04-08T18:05:57.355Z,99792.25
2023-04-08T18:08:25.673Z,99793.06
2023-04-08T18:10:53.960Z,99791.50
2023-04-08T18:13:22.125Z,99796.78
2023-04-08T18:15:51.624Z,99794.03
2023-04-08T18:18:20.457Z,99796.63
2023-04-08T18:20:48.535Z,99801.81
2023-04-08T18:23:17.347Z,99801.69
2023-04-08T18:25:50.386Z,99800.03
2023-04-08T18:28:18.403Z,99810.28
2023-04-08T18:30:51.482Z,99807.50
2023-04-08T18:33:19.564Z,99808.38
2023-04-08T18:35:48.028Z,99814.53
2023-04-08T18:38:16.418Z,99817.91
2023-04-08T18:40:46.183Z,99812.00
2023-04-08T18:43:15.007Z,99819.63
2023-04-08T18:45:43.166Z,99816.06
2023-04-08T18:48:12.602Z,99828.09
2023-04-08T18:50:43.347Z,99824.56
2023-04-08T18:53:12.646Z,99829.09
2023-04-08T18:55:42.335Z,99827.31
2023-04-08T18:58:11.193Z,99829.22
2023-04-08T19:00:43.881Z,99828.34
2023-04-08T19:03:12.442Z,99830.69
2023-04-08T19:05:41.570Z,99833.94
2023-04-08T19:08:09.464Z,99831.59
2023-04-08T19:10:37.733Z,99832.34
2023-04-08T19:13:05.652Z,99833.03
2023-04-08T19:15:33.575Z,99833.75
2023-04-08T19:18:01.911Z,99837.22
2023-04-08T19:20:30.204Z,99835.38
2023-04-08T19:22:58.050Z,99830.78
2023-04-08T19:25:26.231Z,99832.47
2023-04-08T19:27:54.172Z,99836.66
2023-04-08T19:30:22.255Z,99839.06
2023-04-08T19:32:51.674Z,99845.19
2023-04-08T19:35:19.649Z,99839.88
2023-04-08T19:37:47.572Z,99843.25
2023-04-08T19:40:16.097Z,99844.03
2023-04-08T19:42:44.744Z,99843.16
2023-04-08T19:45:12.821Z,99846.38
2023-04-08T19:47:43.435Z,99848.41
2023-04-08T19:50:12.697Z,99852.53
2023-04-08T19:52:41.218Z,99844.50
2023-04-08T19:55:10.449Z,99854.88
2023-04-08T19:57:38.367Z,99847.78
2023-04-08T20:00:08.398Z,99848.72
2023-04-08T20:02:36.399Z,99843.34
2023-04-08T20:05:05.134Z,99856.53
2023-04-08T20:07:32.978Z,99853.66
2023-04-08T20:10:01.064Z,99853.56
2023-04-08T20:12:30.436Z,99858.88
2023-04-08T20:14:58.365Z,99852.56
2023-04-08T20:17:26.689Z,99853.44
2023-04-08T20:19:55.221Z,99855.31
2023-04-08T20:22:23.131Z,99860.34
2023-04-08T20:24:51.204Z,99853.84
2023-04-08T20:27:19.442Z,99857.47
2023-04-08T20:29:47.674Z,99858.84
2023-04-08T20:32:15.753Z,99853.94
2023-04-08T20:34:43.995Z,99854.19
2023-04-08T20:37:11.984Z,99859.13
2023-04-08T20:39:39.855Z,99859.22
2023-04-08T20:42:09.621Z,99852.25
2023-04-08T20:44:37.653Z,99859.88
2023-04-08T20:47:05.729Z,99857.00
2023-04-08T20:49:35.393Z,99862.09
2023-04-08T20:52:03.460Z,99863.75
2023-04-08T20:54:31.904Z,99860.78
2023-04-08T20:57:00.263Z,99865.91
2023-04-08T20:59:28.503Z,99863.81
2023-04-08T21:01:56.603Z,99864.84
2023-04-08T21:04:24.984Z,99866.66
2023-04-08T21:06:53.013Z,99864.84
2023-04-08T21:09:21.206Z,99869.50
2023-04-08T21:11:49.431Z,99869.38
2023-04-08T21:14:17.347Z,99869.91
2023-04-08T21:16:45.789Z,99870.78
2023-04-08T21:19:14.174Z,99882.78
2023-04-08T21:21:42.097Z,99876.69
2023-04-08T21:24:10.935Z,99870.87
2023-04-08T21:26:39.510Z,99876.88
2023-04-08T21:29:07.509Z,99876.72
2023-04-08T21:31:35.724Z,99875.97
2023-04-08T21:34:06.090Z,99877.59
2023-04-08T21:36:34.097Z,99886.34
2023-04-08T21:39:02.612Z,99877.31
2023-04-08T21:41:30.972Z,99881.56
2023-04-08T21:43:59.554Z,99873.06
2023-04-08T21:46:27.638Z,99878.03
2023-04-08T21:48:56.287Z,99878.66
2023-04-08T21:51:24.270Z,99873.25
2023-04-08T21:53:52.661Z,99870.97
2023-04-08T21:56:22.408Z,99874.19
2023-04-08T21:58:50.811Z,99884.84
2023-04-08T22:01:19.079Z,99881.28
2023-04-08T22:03:47.636Z,99875.88
2023-04-08T22:06:29.136Z,99880.94
2023-04-08T22:09:00.194Z,99875.06
2023-04-08T22:11:28.178Z,99876.69
2023-04-08T22:13:56.062Z,99878.97
2023-04-08T22:16:24.508Z,99871.97
2023-04-08T22:18:52.648Z,99875.22
2023-04-08T22:21:21.187Z,99875.88
2023-04-08T22:23:49.487Z,99869.59
2023-04-08T22:26:17.424Z,99872.59
2023-04-08T22:28:45.387Z,99878.66
2023-04-08T22:31:13.760Z,99878.59
2023-04-08T22:33:41.781Z,99876.44
2023-04-08T22:36:09.914Z,99872.06
2023-04-08T22:38:38.345Z,99873.97
2023-04-08T22:41:06.269Z,99877.56
2023-04-08T22:43:34.187Z,99880.53
2023-04-08T22:46:02.457Z,99875.84
2023-04-08T22:48:30.481Z,99866.13
2023-04-08T22:50:58.463Z,99874.78
2023-04-08T22:53:27.736Z,99876.53
2023-04-08T22:55:55.611Z,99873.78
2023-04-08T22:58:23.665Z,99877.75
2023-04-08T23:00:51.887Z,99880.78
2023-04-08T23:03:19.846Z,99881.78
2023-04-08T23:05:47.829Z,99884.25
2023-04-08T23:08:16.387Z,99883.81
2023-04-08T23:10:44.359Z,99882.00
2023-04-08T23:13:14.159Z,99882.75
2023-04-08T23:15:42.425Z,99881.25
2023-04-08T23:18:10.426Z,99885.38
2023-04-08T23:20:38.378Z,99883.00
2023-04-08T23:23:06.719Z,99884.44
2023-04-08T23:25:37.673Z,99881.47
2023-04-08T23:28:05.821Z,99883.19
2023-04-08T23:30:34.093Z,99878.37
2023-04-08T23:33:02.052Z,99882.88
2023-04-08T23:35:29.893Z,99876.69
2023-04-08T23:37:58.277Z,99880.59
2023-04-08T23:40:26.364Z,99882.44
2023-04-08T23:42:54.338Z,99874.78
2023-04-08T23:45:22.641Z,99878.13
2023-04-08T23:47:50.671Z,99876.06
2023-04-08T23:50:20.406Z,99877.78
2023-04-08T23:52:48.866Z,99877.25
2023-04-08T23:55:16.865Z,99875.09
2023-04-08T23:57:44.974Z,99876.88
